<?xml version="1.0" encoding="UTF-8" standalone="no" ?>
<gpx xmlns="http://www.topografix.com/GPX/1/1" xmlns:xsi="http://www.w3.org/2001/XMLSchema-instance" xsi:schemaLocation="http://www.topografix.com/GPX/1/1 http://www.topografix.com/GPX/1/1/gpx.xsd" version="1.1" creator="VisuGPX - https://www.visugpx.com">
  <metadata>
    <name>Piton des Neiges par le Bloc (Réunion)</name>
    <desc><![CDATA[Issu du site www.starduckpictures.fr

Incontournable, l'ascension du Piton des Neiges est l'une des plus difficiles randonnées de la Réunion. Si on  arrive assez tôt, on a un point de vue sur les trois cirques de la l'île.]]></desc>
  </metadata>
  <wpt lat="-21.09556" lon="55.48054">
    <ele>3048.82</ele>
    <name><![CDATA[point vue salazie ]]></name>
    <desc><![CDATA[]]></desc>
    <type><![CDATA[Point de navigation]]></type>
  </wpt>
  <wpt lat="-21.11821" lon="55.48644">
    <ele>1776.06</ele>
    <name><![CDATA[point de vue cilaos ]]></name>
    <desc><![CDATA[]]></desc>
    <type><![CDATA[Point de navigation]]></type>
  </wpt>
  <trk>
    <name><![CDATA[2015-07-25 06:28]]></name>
    <desc><![CDATA[<h1>OruxMaps</h1><br /><hr align="center" width="480" style="height: 2px; width: 517px"/><h2>Nom: 2015-07-25 06:28</h2><br /><p>Temps de départ: 07/25/2015 06:28</p><p>Temps d'arrivée: 07/25/2015 17:24</p><p>Distance: 12,5km (10:55)</p><p>Temps déplacement: 05:28</p><p>Vitesse moyenne: 1,1km/h</p><p>Vitesse moyenne: 2,3km/h</p><p>Vitess Max.: 6,9km/h</p><p>Altitude minimale: 1384m</p><p>Altitude maximale: 3074m</p><p>Vitesse d'élévation: 345,6m/h</p><p>Vitesse de descente: -313,8m/h</p><p>Gain Altitude: 1769m</p><p>Perte Altitude: -1765m</p><p>Temps d'élévation: 05:07</p><p>Temps de descente: 05:37</p><hr align="center" width="480" style="height: 2px; width: 517px"/>]]></desc>
    <trkseg>
      <trkpt lat="-21.12336" lon="55.48306">
        <ele>1384.6</ele>
        <time>2015-07-25T02:28:29Z</time>
      </trkpt>
      <trkpt lat="-21.1232" lon="55.48299">
        <ele>1401.25</ele>
        <time>2015-07-25T02:29:32Z</time>
      </trkpt>
      <trkpt lat="-21.12304" lon="55.48288">
        <ele>1404.03</ele>
        <time>2015-07-25T02:30:03Z</time>
      </trkpt>
      <trkpt lat="-21.1229" lon="55.48274">
        <ele>1410.52</ele>
        <time>2015-07-25T02:30:28Z</time>
      </trkpt>
      <trkpt lat="-21.12276" lon="55.48261">
        <ele>1413.41</ele>
        <time>2015-07-25T02:30:43Z</time>
      </trkpt>
      <trkpt lat="-21.12272" lon="55.4828">
        <ele>1413.8</ele>
        <time>2015-07-25T02:32:21Z</time>
      </trkpt>
      <trkpt lat="-21.1228" lon="55.48298">
        <ele>1416.39</ele>
        <time>2015-07-25T02:32:58Z</time>
      </trkpt>
      <trkpt lat="-21.12286" lon="55.48317">
        <ele>1422.33</ele>
        <time>2015-07-25T02:33:18Z</time>
      </trkpt>
      <trkpt lat="-21.12288" lon="55.48336">
        <ele>1424.29</ele>
        <time>2015-07-25T02:33:55Z</time>
      </trkpt>
      <trkpt lat="-21.1228" lon="55.48354">
        <ele>1425.32</ele>
        <time>2015-07-25T02:34:36Z</time>
      </trkpt>
      <trkpt lat="-21.12262" lon="55.48359">
        <ele>1433.77</ele>
        <time>2015-07-25T02:34:59Z</time>
      </trkpt>
      <trkpt lat="-21.12245" lon="55.48367">
        <ele>1443.03</ele>
        <time>2015-07-25T02:35:33Z</time>
      </trkpt>
      <trkpt lat="-21.12227" lon="55.48372">
        <ele>1449.88</ele>
        <time>2015-07-25T02:36:02Z</time>
      </trkpt>
      <trkpt lat="-21.1221" lon="55.48379">
        <ele>1455.91</ele>
        <time>2015-07-25T02:36:23Z</time>
      </trkpt>
      <trkpt lat="-21.12203" lon="55.48398">
        <ele>1447.92</ele>
        <time>2015-07-25T02:37:02Z</time>
      </trkpt>
      <trkpt lat="-21.12186" lon="55.48403">
        <ele>1452.16</ele>
        <time>2015-07-25T02:37:45Z</time>
      </trkpt>
      <trkpt lat="-21.12168" lon="55.4841">
        <ele>1459.94</ele>
        <time>2015-07-25T02:38:43Z</time>
      </trkpt>
      <trkpt lat="-21.12157" lon="55.48426">
        <ele>1478.43</ele>
        <time>2015-07-25T02:40:05Z</time>
      </trkpt>
      <trkpt lat="-21.12143" lon="55.48438">
        <ele>1491.38</ele>
        <time>2015-07-25T02:41:29Z</time>
      </trkpt>
      <trkpt lat="-21.12144" lon="55.48458">
        <ele>1495.07</ele>
        <time>2015-07-25T02:42:15Z</time>
      </trkpt>
      <trkpt lat="-21.12129" lon="55.48469">
        <ele>1503.06</ele>
        <time>2015-07-25T02:43:07Z</time>
      </trkpt>
      <trkpt lat="-21.12113" lon="55.48479">
        <ele>1507.63</ele>
        <time>2015-07-25T02:44:21Z</time>
      </trkpt>
      <trkpt lat="-21.12101" lon="55.48465">
        <ele>1543.82</ele>
        <time>2015-07-25T02:46:11Z</time>
      </trkpt>
      <trkpt lat="-21.12087" lon="55.48453">
        <ele>1544.03</ele>
        <time>2015-07-25T02:51:30Z</time>
      </trkpt>
      <trkpt lat="-21.12069" lon="55.48453">
        <ele>1563.82</ele>
        <time>2015-07-25T02:53:36Z</time>
      </trkpt>
      <trkpt lat="-21.12061" lon="55.48471">
        <ele>1580.18</ele>
        <time>2015-07-25T02:54:58Z</time>
      </trkpt>
      <trkpt lat="-21.12049" lon="55.48457">
        <ele>1593.73</ele>
        <time>2015-07-25T02:56:07Z</time>
      </trkpt>
      <trkpt lat="-21.12034" lon="55.48445">
        <ele>1596.13</ele>
        <time>2015-07-25T02:57:02Z</time>
      </trkpt>
      <trkpt lat="-21.12016" lon="55.48447">
        <ele>1605.13</ele>
        <time>2015-07-25T02:57:39Z</time>
      </trkpt>
      <trkpt lat="-21.12003" lon="55.48462">
        <ele>1620.94</ele>
        <time>2015-07-25T03:04:10Z</time>
      </trkpt>
      <trkpt lat="-21.11985" lon="55.48466">
        <ele>1629.38</ele>
        <time>2015-07-25T03:05:08Z</time>
      </trkpt>
      <trkpt lat="-21.11973" lon="55.4848">
        <ele>1629.31</ele>
        <time>2015-07-25T03:05:43Z</time>
      </trkpt>
      <trkpt lat="-21.1196" lon="55.48495">
        <ele>1639.65</ele>
        <time>2015-07-25T03:06:12Z</time>
      </trkpt>
      <trkpt lat="-21.11966" lon="55.48513">
        <ele>1643.06</ele>
        <time>2015-07-25T03:07:10Z</time>
      </trkpt>
      <trkpt lat="-21.11951" lon="55.48523">
        <ele>1643.27</ele>
        <time>2015-07-25T03:07:37Z</time>
      </trkpt>
      <trkpt lat="-21.11948" lon="55.48543">
        <ele>1652</ele>
        <time>2015-07-25T03:09:10Z</time>
      </trkpt>
      <trkpt lat="-21.11944" lon="55.48562">
        <ele>1662.71</ele>
        <time>2015-07-25T03:10:05Z</time>
      </trkpt>
      <trkpt lat="-21.11953" lon="55.48579">
        <ele>1669.69</ele>
        <time>2015-07-25T03:10:40Z</time>
      </trkpt>
      <trkpt lat="-21.11943" lon="55.48597">
        <ele>1673.89</ele>
        <time>2015-07-25T03:15:37Z</time>
      </trkpt>
      <trkpt lat="-21.11926" lon="55.48604">
        <ele>1680.57</ele>
        <time>2015-07-25T03:16:54Z</time>
      </trkpt>
      <trkpt lat="-21.11908" lon="55.486">
        <ele>1688.01</ele>
        <time>2015-07-25T03:17:31Z</time>
      </trkpt>
      <trkpt lat="-21.11891" lon="55.48609">
        <ele>1693.34</ele>
        <time>2015-07-25T03:18:45Z</time>
      </trkpt>
      <trkpt lat="-21.11902" lon="55.48625">
        <ele>1693.07</ele>
        <time>2015-07-25T03:19:33Z</time>
      </trkpt>
      <trkpt lat="-21.11916" lon="55.48637">
        <ele>1711.79</ele>
        <time>2015-07-25T03:20:19Z</time>
      </trkpt>
      <trkpt lat="-21.11898" lon="55.48635">
        <ele>1719.75</ele>
        <time>2015-07-25T03:21:02Z</time>
      </trkpt>
      <trkpt lat="-21.11906" lon="55.48653">
        <ele>1727.84</ele>
        <time>2015-07-25T03:21:35Z</time>
      </trkpt>
      <trkpt lat="-21.11889" lon="55.48645">
        <ele>1739.27</ele>
        <time>2015-07-25T03:22:25Z</time>
      </trkpt>
      <trkpt lat="-21.11871" lon="55.48646">
        <ele>1751.19</ele>
        <time>2015-07-25T03:23:44Z</time>
      </trkpt>
      <trkpt lat="-21.11853" lon="55.48641">
        <ele>1760.3</ele>
        <time>2015-07-25T03:25:01Z</time>
      </trkpt>
      <trkpt lat="-21.11835" lon="55.48641">
        <ele>1769.56</ele>
        <time>2015-07-25T03:25:51Z</time>
      </trkpt>
      <trkpt lat="-21.11817" lon="55.48637">
        <ele>1770.73</ele>
        <time>2015-07-25T03:31:41Z</time>
      </trkpt>
      <trkpt lat="-21.11824" lon="55.48656">
        <ele>1778</ele>
        <time>2015-07-25T03:32:17Z</time>
      </trkpt>
      <trkpt lat="-21.11819" lon="55.48675">
        <ele>1784.52</ele>
        <time>2015-07-25T03:32:47Z</time>
      </trkpt>
      <trkpt lat="-21.11808" lon="55.4869">
        <ele>1786.7</ele>
        <time>2015-07-25T03:33:33Z</time>
      </trkpt>
      <trkpt lat="-21.11796" lon="55.48705">
        <ele>1797.34</ele>
        <time>2015-07-25T03:34:14Z</time>
      </trkpt>
      <trkpt lat="-21.11785" lon="55.48688">
        <ele>1802.7</ele>
        <time>2015-07-25T03:35:24Z</time>
      </trkpt>
      <trkpt lat="-21.11769" lon="55.48677">
        <ele>1819.74</ele>
        <time>2015-07-25T03:37:05Z</time>
      </trkpt>
      <trkpt lat="-21.11756" lon="55.4869">
        <ele>1847.05</ele>
        <time>2015-07-25T03:39:38Z</time>
      </trkpt>
      <trkpt lat="-21.11749" lon="55.48708">
        <ele>1867.66</ele>
        <time>2015-07-25T03:43:06Z</time>
      </trkpt>
      <trkpt lat="-21.11734" lon="55.48721">
        <ele>1865.71</ele>
        <time>2015-07-25T03:43:23Z</time>
      </trkpt>
      <trkpt lat="-21.11722" lon="55.48735">
        <ele>1870.2</ele>
        <time>2015-07-25T03:44:07Z</time>
      </trkpt>
      <trkpt lat="-21.11706" lon="55.48745">
        <ele>1873.45</ele>
        <time>2015-07-25T03:44:54Z</time>
      </trkpt>
      <trkpt lat="-21.1169" lon="55.48753">
        <ele>1876.15</ele>
        <time>2015-07-25T03:45:32Z</time>
      </trkpt>
      <trkpt lat="-21.11671" lon="55.48755">
        <ele>1876.88</ele>
        <time>2015-07-25T03:46:13Z</time>
      </trkpt>
      <trkpt lat="-21.11654" lon="55.48753">
        <ele>1889.43</ele>
        <time>2015-07-25T03:46:49Z</time>
      </trkpt>
      <trkpt lat="-21.11642" lon="55.48739">
        <ele>1898.37</ele>
        <time>2015-07-25T03:47:28Z</time>
      </trkpt>
      <trkpt lat="-21.11635" lon="55.4872">
        <ele>1899.04</ele>
        <time>2015-07-25T03:48:17Z</time>
      </trkpt>
      <trkpt lat="-21.11617" lon="55.48721">
        <ele>1916.9</ele>
        <time>2015-07-25T03:49:25Z</time>
      </trkpt>
      <trkpt lat="-21.116" lon="55.48726">
        <ele>1902.99</ele>
        <time>2015-07-25T03:49:40Z</time>
      </trkpt>
      <trkpt lat="-21.11588" lon="55.48741">
        <ele>1906.02</ele>
        <time>2015-07-25T03:50:07Z</time>
      </trkpt>
      <trkpt lat="-21.11578" lon="55.48757">
        <ele>1914.4</ele>
        <time>2015-07-25T03:51:13Z</time>
      </trkpt>
      <trkpt lat="-21.11575" lon="55.48777">
        <ele>1918.32</ele>
        <time>2015-07-25T03:51:57Z</time>
      </trkpt>
      <trkpt lat="-21.11572" lon="55.48796">
        <ele>1926.96</ele>
        <time>2015-07-25T03:52:44Z</time>
      </trkpt>
      <trkpt lat="-21.11568" lon="55.48815">
        <ele>1926.58</ele>
        <time>2015-07-25T03:53:22Z</time>
      </trkpt>
      <trkpt lat="-21.1155" lon="55.48814">
        <ele>1946.25</ele>
        <time>2015-07-25T03:54:26Z</time>
      </trkpt>
      <trkpt lat="-21.11535" lon="55.48801">
        <ele>1939.45</ele>
        <time>2015-07-25T03:55:01Z</time>
      </trkpt>
      <trkpt lat="-21.11517" lon="55.48796">
        <ele>1946.76</ele>
        <time>2015-07-25T03:56:23Z</time>
      </trkpt>
      <trkpt lat="-21.11499" lon="55.48793">
        <ele>1950.52</ele>
        <time>2015-07-25T03:57:20Z</time>
      </trkpt>
      <trkpt lat="-21.1148" lon="55.48793">
        <ele>1962.59</ele>
        <time>2015-07-25T03:57:49Z</time>
      </trkpt>
      <trkpt lat="-21.11462" lon="55.48796">
        <ele>1965.35</ele>
        <time>2015-07-25T03:58:04Z</time>
      </trkpt>
      <trkpt lat="-21.11444" lon="55.48795">
        <ele>1967.74</ele>
        <time>2015-07-25T03:58:20Z</time>
      </trkpt>
      <trkpt lat="-21.11427" lon="55.4879">
        <ele>1973.63</ele>
        <time>2015-07-25T03:58:45Z</time>
      </trkpt>
      <trkpt lat="-21.11409" lon="55.48785">
        <ele>1972.57</ele>
        <time>2015-07-25T03:59:05Z</time>
      </trkpt>
      <trkpt lat="-21.11391" lon="55.48783">
        <ele>1979.8</ele>
        <time>2015-07-25T03:59:31Z</time>
      </trkpt>
      <trkpt lat="-21.11372" lon="55.48781">
        <ele>1977.73</ele>
        <time>2015-07-25T04:02:45Z</time>
      </trkpt>
      <trkpt lat="-21.11355" lon="55.48787">
        <ele>1978.12</ele>
        <time>2015-07-25T04:03:07Z</time>
      </trkpt>
      <trkpt lat="-21.1134" lon="55.48799">
        <ele>1989.68</ele>
        <time>2015-07-25T04:03:36Z</time>
      </trkpt>
      <trkpt lat="-21.11326" lon="55.48812">
        <ele>1996.06</ele>
        <time>2015-07-25T04:04:01Z</time>
      </trkpt>
      <trkpt lat="-21.11313" lon="55.48825">
        <ele>2002.17</ele>
        <time>2015-07-25T04:04:34Z</time>
      </trkpt>
      <trkpt lat="-21.11312" lon="55.48845">
        <ele>2013.35</ele>
        <time>2015-07-25T04:05:06Z</time>
      </trkpt>
      <trkpt lat="-21.11296" lon="55.48855">
        <ele>1999.95</ele>
        <time>2015-07-25T04:05:38Z</time>
      </trkpt>
      <trkpt lat="-21.11281" lon="55.48868">
        <ele>1993.82</ele>
        <time>2015-07-25T04:06:26Z</time>
      </trkpt>
      <trkpt lat="-21.11299" lon="55.48872">
        <ele>1998.45</ele>
        <time>2015-07-25T04:06:57Z</time>
      </trkpt>
      <trkpt lat="-21.11302" lon="55.48891">
        <ele>2006.35</ele>
        <time>2015-07-25T04:08:00Z</time>
      </trkpt>
      <trkpt lat="-21.11303" lon="55.48911">
        <ele>2004.76</ele>
        <time>2015-07-25T04:08:29Z</time>
      </trkpt>
      <trkpt lat="-21.11303" lon="55.4893">
        <ele>2013.46</ele>
        <time>2015-07-25T04:08:55Z</time>
      </trkpt>
      <trkpt lat="-21.11296" lon="55.48948">
        <ele>2013.82</ele>
        <time>2015-07-25T04:09:36Z</time>
      </trkpt>
      <trkpt lat="-21.11315" lon="55.4895">
        <ele>2011.11</ele>
        <time>2015-07-25T04:10:05Z</time>
      </trkpt>
      <trkpt lat="-21.11332" lon="55.48958">
        <ele>2023.19</ele>
        <time>2015-07-25T04:10:28Z</time>
      </trkpt>
      <trkpt lat="-21.11338" lon="55.48976">
        <ele>2029.31</ele>
        <time>2015-07-25T04:11:04Z</time>
      </trkpt>
      <trkpt lat="-21.11346" lon="55.48993">
        <ele>2032.27</ele>
        <time>2015-07-25T04:11:50Z</time>
      </trkpt>
      <trkpt lat="-21.11354" lon="55.49011">
        <ele>2036.39</ele>
        <time>2015-07-25T04:12:17Z</time>
      </trkpt>
      <trkpt lat="-21.11366" lon="55.49026">
        <ele>2046.29</ele>
        <time>2015-07-25T04:12:54Z</time>
      </trkpt>
      <trkpt lat="-21.11366" lon="55.49046">
        <ele>2045.95</ele>
        <time>2015-07-25T04:13:23Z</time>
      </trkpt>
      <trkpt lat="-21.11356" lon="55.49062">
        <ele>2054.31</ele>
        <time>2015-07-25T04:13:48Z</time>
      </trkpt>
      <trkpt lat="-21.11344" lon="55.49077">
        <ele>2054.4</ele>
        <time>2015-07-25T04:14:17Z</time>
      </trkpt>
      <trkpt lat="-21.11337" lon="55.49095">
        <ele>2062.3</ele>
        <time>2015-07-25T04:14:45Z</time>
      </trkpt>
      <trkpt lat="-21.11334" lon="55.49115">
        <ele>2066.38</ele>
        <time>2015-07-25T04:15:33Z</time>
      </trkpt>
      <trkpt lat="-21.11349" lon="55.49126">
        <ele>2095.3</ele>
        <time>2015-07-25T04:16:42Z</time>
      </trkpt>
      <trkpt lat="-21.11354" lon="55.49146">
        <ele>2088.24</ele>
        <time>2015-07-25T04:17:15Z</time>
      </trkpt>
      <trkpt lat="-21.11343" lon="55.49161">
        <ele>2088.61</ele>
        <time>2015-07-25T04:17:59Z</time>
      </trkpt>
      <trkpt lat="-21.11325" lon="55.49162">
        <ele>2088.81</ele>
        <time>2015-07-25T04:18:32Z</time>
      </trkpt>
      <trkpt lat="-21.11308" lon="55.49169">
        <ele>2109.11</ele>
        <time>2015-07-25T04:19:58Z</time>
      </trkpt>
      <trkpt lat="-21.11319" lon="55.49185">
        <ele>2147.18</ele>
        <time>2015-07-25T04:22:21Z</time>
      </trkpt>
      <trkpt lat="-21.11332" lon="55.49199">
        <ele>2146.16</ele>
        <time>2015-07-25T04:22:38Z</time>
      </trkpt>
      <trkpt lat="-21.11347" lon="55.4921">
        <ele>2155.83</ele>
        <time>2015-07-25T04:23:07Z</time>
      </trkpt>
      <trkpt lat="-21.11339" lon="55.49227">
        <ele>2145.3</ele>
        <time>2015-07-25T04:23:40Z</time>
      </trkpt>
      <trkpt lat="-21.11332" lon="55.49245">
        <ele>2178.45</ele>
        <time>2015-07-25T04:26:52Z</time>
      </trkpt>
      <trkpt lat="-21.11342" lon="55.49261">
        <ele>2205.35</ele>
        <time>2015-07-25T04:28:35Z</time>
      </trkpt>
      <trkpt lat="-21.1135" lon="55.49279">
        <ele>2211.07</ele>
        <time>2015-07-25T04:29:24Z</time>
      </trkpt>
      <trkpt lat="-21.11341" lon="55.49296">
        <ele>2210.96</ele>
        <time>2015-07-25T04:30:19Z</time>
      </trkpt>
      <trkpt lat="-21.11338" lon="55.49316">
        <ele>2234.12</ele>
        <time>2015-07-25T04:32:23Z</time>
      </trkpt>
      <trkpt lat="-21.1132" lon="55.49319">
        <ele>2242.94</ele>
        <time>2015-07-25T04:33:10Z</time>
      </trkpt>
      <trkpt lat="-21.11326" lon="55.49338">
        <ele>2257.24</ele>
        <time>2015-07-25T04:34:41Z</time>
      </trkpt>
      <trkpt lat="-21.11309" lon="55.49343">
        <ele>2271.51</ele>
        <time>2015-07-25T04:35:58Z</time>
      </trkpt>
      <trkpt lat="-21.11293" lon="55.49352">
        <ele>2282.7</ele>
        <time>2015-07-25T04:37:31Z</time>
      </trkpt>
      <trkpt lat="-21.11276" lon="55.49358">
        <ele>2286.4</ele>
        <time>2015-07-25T04:38:03Z</time>
      </trkpt>
      <trkpt lat="-21.11258" lon="55.49362">
        <ele>2303.02</ele>
        <time>2015-07-25T04:51:59Z</time>
      </trkpt>
      <trkpt lat="-21.11271" lon="55.49375">
        <ele>2325.32</ele>
        <time>2015-07-25T04:53:20Z</time>
      </trkpt>
      <trkpt lat="-21.11286" lon="55.49386">
        <ele>2333.44</ele>
        <time>2015-07-25T04:53:51Z</time>
      </trkpt>
      <trkpt lat="-21.11287" lon="55.49405">
        <ele>2328.64</ele>
        <time>2015-07-25T04:54:33Z</time>
      </trkpt>
      <trkpt lat="-21.11306" lon="55.49404">
        <ele>2345.45</ele>
        <time>2015-07-25T04:56:11Z</time>
      </trkpt>
      <trkpt lat="-21.11315" lon="55.49421">
        <ele>2334.07</ele>
        <time>2015-07-25T04:56:32Z</time>
      </trkpt>
      <trkpt lat="-21.11298" lon="55.49427">
        <ele>2352.99</ele>
        <time>2015-07-25T04:57:38Z</time>
      </trkpt>
      <trkpt lat="-21.11311" lon="55.49441">
        <ele>2359.82</ele>
        <time>2015-07-25T04:58:40Z</time>
      </trkpt>
      <trkpt lat="-21.11293" lon="55.49447">
        <ele>2367</ele>
        <time>2015-07-25T04:59:25Z</time>
      </trkpt>
      <trkpt lat="-21.11282" lon="55.49462">
        <ele>2378.51</ele>
        <time>2015-07-25T05:00:51Z</time>
      </trkpt>
      <trkpt lat="-21.11281" lon="55.49481">
        <ele>2402.27</ele>
        <time>2015-07-25T05:03:10Z</time>
      </trkpt>
      <trkpt lat="-21.11272" lon="55.49498">
        <ele>2418.04</ele>
        <time>2015-07-25T05:04:43Z</time>
      </trkpt>
      <trkpt lat="-21.11253" lon="55.495">
        <ele>2430.59</ele>
        <time>2015-07-25T05:07:05Z</time>
      </trkpt>
      <trkpt lat="-21.11237" lon="55.49491">
        <ele>2438.94</ele>
        <time>2015-07-25T05:07:38Z</time>
      </trkpt>
      <trkpt lat="-21.11219" lon="55.49492">
        <ele>2451.37</ele>
        <time>2015-07-25T05:08:24Z</time>
      </trkpt>
      <trkpt lat="-21.11202" lon="55.49499">
        <ele>2461.95</ele>
        <time>2015-07-25T05:15:00Z</time>
      </trkpt>
      <trkpt lat="-21.11191" lon="55.49515">
        <ele>2486.82</ele>
        <time>2015-07-25T05:16:39Z</time>
      </trkpt>
      <trkpt lat="-21.11172" lon="55.49513">
        <ele>2501.9</ele>
        <time>2015-07-25T05:18:06Z</time>
      </trkpt>
      <trkpt lat="-21.11157" lon="55.49503">
        <ele>2502.83</ele>
        <time>2015-07-25T05:18:44Z</time>
      </trkpt>
      <trkpt lat="-21.11144" lon="55.49516">
        <ele>2501.61</ele>
        <time>2015-07-25T05:19:53Z</time>
      </trkpt>
      <trkpt lat="-21.11128" lon="55.49525">
        <ele>2499.03</ele>
        <time>2015-07-25T05:23:12Z</time>
      </trkpt>
      <trkpt lat="-21.11115" lon="55.49539">
        <ele>2492.81</ele>
        <time>2015-07-25T05:24:01Z</time>
      </trkpt>
      <trkpt lat="-21.11097" lon="55.49541">
        <ele>2476.58</ele>
        <time>2015-07-25T05:24:57Z</time>
      </trkpt>
      <trkpt lat="-21.11079" lon="55.49546">
        <ele>2479.43</ele>
        <time>2015-07-25T05:25:40Z</time>
      </trkpt>
      <trkpt lat="-21.11062" lon="55.49556">
        <ele>2476.11</ele>
        <time>2015-07-25T05:26:03Z</time>
      </trkpt>
      <trkpt lat="-21.11045" lon="55.49562">
        <ele>2483.7</ele>
        <time>2015-07-25T05:26:28Z</time>
      </trkpt>
      <trkpt lat="-21.11029" lon="55.49571">
        <ele>2489.81</ele>
        <time>2015-07-25T05:26:52Z</time>
      </trkpt>
      <trkpt lat="-21.11012" lon="55.49579">
        <ele>2489.32</ele>
        <time>2015-07-25T05:27:10Z</time>
      </trkpt>
      <trkpt lat="-21.10999" lon="55.49593">
        <ele>2486.35</ele>
        <time>2015-07-25T05:27:39Z</time>
      </trkpt>
      <trkpt lat="-21.10985" lon="55.49607">
        <ele>2491.17</ele>
        <time>2015-07-25T05:28:33Z</time>
      </trkpt>
      <trkpt lat="-21.10968" lon="55.49613">
        <ele>2492.85</ele>
        <time>2015-07-25T05:37:03Z</time>
      </trkpt>
      <trkpt lat="-21.10962" lon="55.49594">
        <ele>2497.33</ele>
        <time>2015-07-25T05:37:42Z</time>
      </trkpt>
      <trkpt lat="-21.10954" lon="55.49576">
        <ele>2497.1</ele>
        <time>2015-07-25T05:38:12Z</time>
      </trkpt>
      <trkpt lat="-21.10947" lon="55.49558">
        <ele>2500.7</ele>
        <time>2015-07-25T05:39:28Z</time>
      </trkpt>
      <trkpt lat="-21.10938" lon="55.49541">
        <ele>2508.78</ele>
        <time>2015-07-25T05:40:13Z</time>
      </trkpt>
      <trkpt lat="-21.1093" lon="55.49523">
        <ele>2516.52</ele>
        <time>2015-07-25T05:40:45Z</time>
      </trkpt>
      <trkpt lat="-21.10921" lon="55.49506">
        <ele>2518.61</ele>
        <time>2015-07-25T05:41:15Z</time>
      </trkpt>
      <trkpt lat="-21.10907" lon="55.49492">
        <ele>2527.57</ele>
        <time>2015-07-25T05:42:07Z</time>
      </trkpt>
      <trkpt lat="-21.10893" lon="55.4948">
        <ele>2531.69</ele>
        <time>2015-07-25T05:42:37Z</time>
      </trkpt>
      <trkpt lat="-21.10879" lon="55.49467">
        <ele>2531.78</ele>
        <time>2015-07-25T05:43:25Z</time>
      </trkpt>
      <trkpt lat="-21.10864" lon="55.49456">
        <ele>2539.09</ele>
        <time>2015-07-25T05:44:06Z</time>
      </trkpt>
      <trkpt lat="-21.10848" lon="55.49447">
        <ele>2550.81</ele>
        <time>2015-07-25T05:44:48Z</time>
      </trkpt>
      <trkpt lat="-21.10829" lon="55.49443">
        <ele>2556.91</ele>
        <time>2015-07-25T05:45:17Z</time>
      </trkpt>
      <trkpt lat="-21.10813" lon="55.49432">
        <ele>2559.35</ele>
        <time>2015-07-25T05:45:59Z</time>
      </trkpt>
      <trkpt lat="-21.10799" lon="55.49421">
        <ele>2562.11</ele>
        <time>2015-07-25T05:48:57Z</time>
      </trkpt>
      <trkpt lat="-21.10783" lon="55.49411">
        <ele>2568.02</ele>
        <time>2015-07-25T05:49:26Z</time>
      </trkpt>
      <trkpt lat="-21.1077" lon="55.49396">
        <ele>2568.88</ele>
        <time>2015-07-25T05:50:06Z</time>
      </trkpt>
      <trkpt lat="-21.10753" lon="55.4939">
        <ele>2569.1</ele>
        <time>2015-07-25T05:50:45Z</time>
      </trkpt>
      <trkpt lat="-21.10737" lon="55.49379">
        <ele>2578.79</ele>
        <time>2015-07-25T05:51:12Z</time>
      </trkpt>
      <trkpt lat="-21.10724" lon="55.49365">
        <ele>2578.79</ele>
        <time>2015-07-25T05:51:44Z</time>
      </trkpt>
      <trkpt lat="-21.1071" lon="55.49353">
        <ele>2587.33</ele>
        <time>2015-07-25T05:52:23Z</time>
      </trkpt>
      <trkpt lat="-21.10695" lon="55.49343">
        <ele>2592.54</ele>
        <time>2015-07-25T05:53:19Z</time>
      </trkpt>
      <trkpt lat="-21.10681" lon="55.49331">
        <ele>2594.26</ele>
        <time>2015-07-25T05:55:52Z</time>
      </trkpt>
      <trkpt lat="-21.10664" lon="55.49324">
        <ele>2596.44</ele>
        <time>2015-07-25T05:58:17Z</time>
      </trkpt>
      <trkpt lat="-21.10646" lon="55.49324">
        <ele>2603.81</ele>
        <time>2015-07-25T05:58:50Z</time>
      </trkpt>
      <trkpt lat="-21.10628" lon="55.49319">
        <ele>2609.18</ele>
        <time>2015-07-25T05:59:24Z</time>
      </trkpt>
      <trkpt lat="-21.10611" lon="55.49312">
        <ele>2613.3</ele>
        <time>2015-07-25T06:00:06Z</time>
      </trkpt>
      <trkpt lat="-21.10599" lon="55.49298">
        <ele>2619.3</ele>
        <time>2015-07-25T06:00:43Z</time>
      </trkpt>
      <trkpt lat="-21.10581" lon="55.49293">
        <ele>2619.32</ele>
        <time>2015-07-25T06:01:16Z</time>
      </trkpt>
      <trkpt lat="-21.10565" lon="55.49283">
        <ele>2631.29</ele>
        <time>2015-07-25T06:02:08Z</time>
      </trkpt>
      <trkpt lat="-21.1055" lon="55.49271">
        <ele>2635.32</ele>
        <time>2015-07-25T06:03:33Z</time>
      </trkpt>
      <trkpt lat="-21.10538" lon="55.49258">
        <ele>2639.63</ele>
        <time>2015-07-25T06:04:20Z</time>
      </trkpt>
      <trkpt lat="-21.1052" lon="55.49251">
        <ele>2643.04</ele>
        <time>2015-07-25T06:05:09Z</time>
      </trkpt>
      <trkpt lat="-21.10502" lon="55.49248">
        <ele>2656.31</ele>
        <time>2015-07-25T06:06:10Z</time>
      </trkpt>
      <trkpt lat="-21.10485" lon="55.49245">
        <ele>2661.31</ele>
        <time>2015-07-25T06:06:59Z</time>
      </trkpt>
      <trkpt lat="-21.10468" lon="55.49236">
        <ele>2665.15</ele>
        <time>2015-07-25T06:08:09Z</time>
      </trkpt>
      <trkpt lat="-21.10451" lon="55.49231">
        <ele>2675.59</ele>
        <time>2015-07-25T06:08:54Z</time>
      </trkpt>
      <trkpt lat="-21.10433" lon="55.49228">
        <ele>2679.06</ele>
        <time>2015-07-25T06:09:52Z</time>
      </trkpt>
      <trkpt lat="-21.10415" lon="55.49224">
        <ele>2687.09</ele>
        <time>2015-07-25T06:10:43Z</time>
      </trkpt>
      <trkpt lat="-21.10401" lon="55.49212">
        <ele>2691.97</ele>
        <time>2015-07-25T06:11:25Z</time>
      </trkpt>
      <trkpt lat="-21.10386" lon="55.49201">
        <ele>2693.81</ele>
        <time>2015-07-25T06:12:07Z</time>
      </trkpt>
      <trkpt lat="-21.10379" lon="55.49182">
        <ele>2699.53</ele>
        <time>2015-07-25T06:15:29Z</time>
      </trkpt>
      <trkpt lat="-21.1037" lon="55.49166">
        <ele>2708.28</ele>
        <time>2015-07-25T06:15:57Z</time>
      </trkpt>
      <trkpt lat="-21.10363" lon="55.49147">
        <ele>2714.82</ele>
        <time>2015-07-25T06:16:32Z</time>
      </trkpt>
      <trkpt lat="-21.10346" lon="55.49139">
        <ele>2722.86</ele>
        <time>2015-07-25T06:17:02Z</time>
      </trkpt>
      <trkpt lat="-21.10334" lon="55.49124">
        <ele>2723.12</ele>
        <time>2015-07-25T06:17:42Z</time>
      </trkpt>
      <trkpt lat="-21.10318" lon="55.49116">
        <ele>2727.47</ele>
        <time>2015-07-25T06:18:08Z</time>
      </trkpt>
      <trkpt lat="-21.103" lon="55.49111">
        <ele>2733.76</ele>
        <time>2015-07-25T06:18:48Z</time>
      </trkpt>
      <trkpt lat="-21.10286" lon="55.49099">
        <ele>2737.49</ele>
        <time>2015-07-25T06:19:34Z</time>
      </trkpt>
      <trkpt lat="-21.10273" lon="55.49085">
        <ele>2741.65</ele>
        <time>2015-07-25T06:20:16Z</time>
      </trkpt>
      <trkpt lat="-21.10255" lon="55.49079">
        <ele>2749.37</ele>
        <time>2015-07-25T06:20:50Z</time>
      </trkpt>
      <trkpt lat="-21.10238" lon="55.49072">
        <ele>2751.57</ele>
        <time>2015-07-25T06:21:33Z</time>
      </trkpt>
      <trkpt lat="-21.10224" lon="55.4906">
        <ele>2759.68</ele>
        <time>2015-07-25T06:22:08Z</time>
      </trkpt>
      <trkpt lat="-21.10206" lon="55.49054">
        <ele>2763.2</ele>
        <time>2015-07-25T06:22:37Z</time>
      </trkpt>
      <trkpt lat="-21.10205" lon="55.49034">
        <ele>2771.29</ele>
        <time>2015-07-25T06:23:19Z</time>
      </trkpt>
      <trkpt lat="-21.10195" lon="55.49017">
        <ele>2771.2</ele>
        <time>2015-07-25T06:24:07Z</time>
      </trkpt>
      <trkpt lat="-21.10184" lon="55.49002">
        <ele>2776.77</ele>
        <time>2015-07-25T06:29:41Z</time>
      </trkpt>
      <trkpt lat="-21.10174" lon="55.48985">
        <ele>2781.13</ele>
        <time>2015-07-25T06:30:08Z</time>
      </trkpt>
      <trkpt lat="-21.10165" lon="55.48967">
        <ele>2786.45</ele>
        <time>2015-07-25T06:30:43Z</time>
      </trkpt>
      <trkpt lat="-21.10154" lon="55.48952">
        <ele>2789.91</ele>
        <time>2015-07-25T06:31:19Z</time>
      </trkpt>
      <trkpt lat="-21.1014" lon="55.48939">
        <ele>2791.83</ele>
        <time>2015-07-25T06:31:54Z</time>
      </trkpt>
      <trkpt lat="-21.10135" lon="55.4892">
        <ele>2800.06</ele>
        <time>2015-07-25T06:32:31Z</time>
      </trkpt>
      <trkpt lat="-21.10126" lon="55.48904">
        <ele>2800.39</ele>
        <time>2015-07-25T06:33:02Z</time>
      </trkpt>
      <trkpt lat="-21.10126" lon="55.48884">
        <ele>2802.37</ele>
        <time>2015-07-25T06:33:30Z</time>
      </trkpt>
      <trkpt lat="-21.1012" lon="55.48865">
        <ele>2803.57</ele>
        <time>2015-07-25T06:34:01Z</time>
      </trkpt>
      <trkpt lat="-21.10117" lon="55.48846">
        <ele>2807.27</ele>
        <time>2015-07-25T06:34:32Z</time>
      </trkpt>
      <trkpt lat="-21.10111" lon="55.48827">
        <ele>2808.2</ele>
        <time>2015-07-25T06:35:13Z</time>
      </trkpt>
      <trkpt lat="-21.10107" lon="55.48808">
        <ele>2812.64</ele>
        <time>2015-07-25T06:35:54Z</time>
      </trkpt>
      <trkpt lat="-21.10109" lon="55.48788">
        <ele>2815.3</ele>
        <time>2015-07-25T06:36:21Z</time>
      </trkpt>
      <trkpt lat="-21.10102" lon="55.4877">
        <ele>2828.16</ele>
        <time>2015-07-25T06:36:57Z</time>
      </trkpt>
      <trkpt lat="-21.10084" lon="55.4877">
        <ele>2828.44</ele>
        <time>2015-07-25T06:37:50Z</time>
      </trkpt>
      <trkpt lat="-21.10066" lon="55.4877">
        <ele>2829.03</ele>
        <time>2015-07-25T06:38:12Z</time>
      </trkpt>
      <trkpt lat="-21.10047" lon="55.48775">
        <ele>2834.06</ele>
        <time>2015-07-25T06:39:02Z</time>
      </trkpt>
      <trkpt lat="-21.10029" lon="55.48775">
        <ele>2838.63</ele>
        <time>2015-07-25T06:39:26Z</time>
      </trkpt>
      <trkpt lat="-21.10011" lon="55.48777">
        <ele>2839.19</ele>
        <time>2015-07-25T06:40:00Z</time>
      </trkpt>
      <trkpt lat="-21.09994" lon="55.48785">
        <ele>2833.48</ele>
        <time>2015-07-25T06:40:23Z</time>
      </trkpt>
      <trkpt lat="-21.09978" lon="55.48794">
        <ele>2838.91</ele>
        <time>2015-07-25T06:40:50Z</time>
      </trkpt>
      <trkpt lat="-21.0996" lon="55.48796">
        <ele>2851.27</ele>
        <time>2015-07-25T06:41:34Z</time>
      </trkpt>
      <trkpt lat="-21.09941" lon="55.48797">
        <ele>2853.8</ele>
        <time>2015-07-25T06:41:55Z</time>
      </trkpt>
      <trkpt lat="-21.09932" lon="55.4878">
        <ele>2850.46</ele>
        <time>2015-07-25T06:43:26Z</time>
      </trkpt>
      <trkpt lat="-21.0992" lon="55.48765">
        <ele>2848.5</ele>
        <time>2015-07-25T06:44:00Z</time>
      </trkpt>
      <trkpt lat="-21.09905" lon="55.48752">
        <ele>2848.03</ele>
        <time>2015-07-25T06:44:27Z</time>
      </trkpt>
      <trkpt lat="-21.09891" lon="55.4874">
        <ele>2843.99</ele>
        <time>2015-07-25T06:44:51Z</time>
      </trkpt>
      <trkpt lat="-21.09883" lon="55.48723">
        <ele>2846.78</ele>
        <time>2015-07-25T06:45:15Z</time>
      </trkpt>
      <trkpt lat="-21.09873" lon="55.48706">
        <ele>2848.34</ele>
        <time>2015-07-25T06:45:36Z</time>
      </trkpt>
      <trkpt lat="-21.09858" lon="55.48693">
        <ele>2850.84</ele>
        <time>2015-07-25T06:46:00Z</time>
      </trkpt>
      <trkpt lat="-21.09855" lon="55.48674">
        <ele>2847.09</ele>
        <time>2015-07-25T06:46:21Z</time>
      </trkpt>
      <trkpt lat="-21.09843" lon="55.48659">
        <ele>2847.37</ele>
        <time>2015-07-25T06:46:46Z</time>
      </trkpt>
      <trkpt lat="-21.09824" lon="55.48664">
        <ele>2855.83</ele>
        <time>2015-07-25T06:47:42Z</time>
      </trkpt>
      <trkpt lat="-21.09806" lon="55.48665">
        <ele>2859.38</ele>
        <time>2015-07-25T06:48:20Z</time>
      </trkpt>
      <trkpt lat="-21.09789" lon="55.48658">
        <ele>2861.81</ele>
        <time>2015-07-25T06:48:58Z</time>
      </trkpt>
      <trkpt lat="-21.09777" lon="55.48644">
        <ele>2874.86</ele>
        <time>2015-07-25T06:49:35Z</time>
      </trkpt>
      <trkpt lat="-21.09775" lon="55.48624">
        <ele>2877.77</ele>
        <time>2015-07-25T06:50:11Z</time>
      </trkpt>
      <trkpt lat="-21.09784" lon="55.48607">
        <ele>2877.32</ele>
        <time>2015-07-25T06:51:40Z</time>
      </trkpt>
      <trkpt lat="-21.09777" lon="55.48588">
        <ele>2887.83</ele>
        <time>2015-07-25T06:52:59Z</time>
      </trkpt>
      <trkpt lat="-21.0978" lon="55.48569">
        <ele>2890.84</ele>
        <time>2015-07-25T06:53:31Z</time>
      </trkpt>
      <trkpt lat="-21.09777" lon="55.48549">
        <ele>2890.21</ele>
        <time>2015-07-25T06:54:03Z</time>
      </trkpt>
      <trkpt lat="-21.09773" lon="55.4853">
        <ele>2892.06</ele>
        <time>2015-07-25T06:54:27Z</time>
      </trkpt>
      <trkpt lat="-21.09769" lon="55.48511">
        <ele>2896.63</ele>
        <time>2015-07-25T06:55:01Z</time>
      </trkpt>
      <trkpt lat="-21.09766" lon="55.48491">
        <ele>2897.37</ele>
        <time>2015-07-25T06:55:28Z</time>
      </trkpt>
      <trkpt lat="-21.09756" lon="55.48474">
        <ele>2903.31</ele>
        <time>2015-07-25T06:55:56Z</time>
      </trkpt>
      <trkpt lat="-21.09739" lon="55.48467">
        <ele>2903.35</ele>
        <time>2015-07-25T06:56:28Z</time>
      </trkpt>
      <trkpt lat="-21.09732" lon="55.4846">
        <ele>2917.36</ele>
        <time>2015-07-25T07:01:24Z</time>
      </trkpt>
      <trkpt lat="-21.0972" lon="55.48445">
        <ele>2922.13</ele>
        <time>2015-07-25T07:02:00Z</time>
      </trkpt>
      <trkpt lat="-21.09716" lon="55.48426">
        <ele>2924.69</ele>
        <time>2015-07-25T07:02:32Z</time>
      </trkpt>
      <trkpt lat="-21.09709" lon="55.48408">
        <ele>2934.92</ele>
        <time>2015-07-25T07:03:06Z</time>
      </trkpt>
      <trkpt lat="-21.09702" lon="55.4839">
        <ele>2937.13</ele>
        <time>2015-07-25T07:03:54Z</time>
      </trkpt>
      <trkpt lat="-21.09697" lon="55.48371">
        <ele>2943.04</ele>
        <time>2015-07-25T07:04:34Z</time>
      </trkpt>
      <trkpt lat="-21.09684" lon="55.48357">
        <ele>2943.5</ele>
        <time>2015-07-25T07:05:00Z</time>
      </trkpt>
      <trkpt lat="-21.09672" lon="55.48343">
        <ele>2951.16</ele>
        <time>2015-07-25T07:05:35Z</time>
      </trkpt>
      <trkpt lat="-21.09664" lon="55.48325">
        <ele>2948.84</ele>
        <time>2015-07-25T07:06:11Z</time>
      </trkpt>
      <trkpt lat="-21.09661" lon="55.48305">
        <ele>2947.77</ele>
        <time>2015-07-25T07:07:00Z</time>
      </trkpt>
      <trkpt lat="-21.09666" lon="55.48286">
        <ele>2958.26</ele>
        <time>2015-07-25T07:08:36Z</time>
      </trkpt>
      <trkpt lat="-21.09658" lon="55.48268">
        <ele>2961.41</ele>
        <time>2015-07-25T07:09:12Z</time>
      </trkpt>
      <trkpt lat="-21.09657" lon="55.48249">
        <ele>2975.5</ele>
        <time>2015-07-25T07:09:46Z</time>
      </trkpt>
      <trkpt lat="-21.09656" lon="55.48229">
        <ele>2981.54</ele>
        <time>2015-07-25T07:12:10Z</time>
      </trkpt>
      <trkpt lat="-21.09644" lon="55.48215">
        <ele>2987.6</ele>
        <time>2015-07-25T07:13:00Z</time>
      </trkpt>
      <trkpt lat="-21.09641" lon="55.48195">
        <ele>3002.13</ele>
        <time>2015-07-25T07:14:04Z</time>
      </trkpt>
      <trkpt lat="-21.09636" lon="55.48176">
        <ele>3009.2</ele>
        <time>2015-07-25T07:14:37Z</time>
      </trkpt>
      <trkpt lat="-21.09626" lon="55.48159">
        <ele>3017.32</ele>
        <time>2015-07-25T07:15:14Z</time>
      </trkpt>
      <trkpt lat="-21.09621" lon="55.48141">
        <ele>3024.82</ele>
        <time>2015-07-25T07:15:56Z</time>
      </trkpt>
      <trkpt lat="-21.09614" lon="55.48123">
        <ele>3030.35</ele>
        <time>2015-07-25T07:16:30Z</time>
      </trkpt>
      <trkpt lat="-21.09616" lon="55.48103">
        <ele>3023.63</ele>
        <time>2015-07-25T07:17:00Z</time>
      </trkpt>
      <trkpt lat="-21.09619" lon="55.48084">
        <ele>3010.53</ele>
        <time>2015-07-25T07:17:37Z</time>
      </trkpt>
      <trkpt lat="-21.09634" lon="55.48073">
        <ele>3024.28</ele>
        <time>2015-07-25T07:17:56Z</time>
      </trkpt>
      <trkpt lat="-21.09645" lon="55.48057">
        <ele>3026.23</ele>
        <time>2015-07-25T07:18:39Z</time>
      </trkpt>
      <trkpt lat="-21.09657" lon="55.48042">
        <ele>3030.6</ele>
        <time>2015-07-25T07:18:57Z</time>
      </trkpt>
      <trkpt lat="-21.09668" lon="55.48026">
        <ele>3028.47</ele>
        <time>2015-07-25T07:19:18Z</time>
      </trkpt>
      <trkpt lat="-21.09684" lon="55.48015">
        <ele>3029.38</ele>
        <time>2015-07-25T07:19:37Z</time>
      </trkpt>
      <trkpt lat="-21.097" lon="55.48007">
        <ele>3031.23</ele>
        <time>2015-07-25T07:19:54Z</time>
      </trkpt>
      <trkpt lat="-21.09718" lon="55.48001">
        <ele>3036.96</ele>
        <time>2015-07-25T07:20:11Z</time>
      </trkpt>
      <trkpt lat="-21.09734" lon="55.47992">
        <ele>3043.31</ele>
        <time>2015-07-25T07:20:28Z</time>
      </trkpt>
      <trkpt lat="-21.09753" lon="55.47991">
        <ele>3046.96</ele>
        <time>2015-07-25T07:20:50Z</time>
      </trkpt>
      <trkpt lat="-21.09773" lon="55.47986">
        <ele>3047</ele>
        <time>2015-07-25T07:21:11Z</time>
      </trkpt>
      <trkpt lat="-21.0979" lon="55.47979">
        <ele>3055.01</ele>
        <time>2015-07-25T07:21:27Z</time>
      </trkpt>
      <trkpt lat="-21.09808" lon="55.4798">
        <ele>3056.2</ele>
        <time>2015-07-25T07:21:46Z</time>
      </trkpt>
      <trkpt lat="-21.09825" lon="55.47973">
        <ele>3058.63</ele>
        <time>2015-07-25T07:22:08Z</time>
      </trkpt>
      <trkpt lat="-21.09843" lon="55.4798">
        <ele>3059.97</ele>
        <time>2015-07-25T07:22:27Z</time>
      </trkpt>
      <trkpt lat="-21.09861" lon="55.47982">
        <ele>3065.98</ele>
        <time>2015-07-25T07:22:45Z</time>
      </trkpt>
      <trkpt lat="-21.09877" lon="55.47993">
        <ele>3065.63</ele>
        <time>2015-07-25T07:23:03Z</time>
      </trkpt>
      <trkpt lat="-21.09896" lon="55.47996">
        <ele>3067.29</ele>
        <time>2015-07-25T07:23:21Z</time>
      </trkpt>
      <trkpt lat="-21.09914" lon="55.47998">
        <ele>3068.41</ele>
        <time>2015-07-25T07:23:37Z</time>
      </trkpt>
      <trkpt lat="-21.09932" lon="55.47997">
        <ele>3073.15</ele>
        <time>2015-07-25T07:23:55Z</time>
      </trkpt>
      <trkpt lat="-21.09947" lon="55.4801">
        <ele>3074.58</ele>
        <time>2015-07-25T07:25:02Z</time>
      </trkpt>
      <trkpt lat="-21.09952" lon="55.48028">
        <ele>3065.96</ele>
        <time>2015-07-25T07:25:59Z</time>
      </trkpt>
      <trkpt lat="-21.09961" lon="55.48046">
        <ele>3062.89</ele>
        <time>2015-07-25T07:26:49Z</time>
      </trkpt>
      <trkpt lat="-21.09978" lon="55.48052">
        <ele>3064.35</ele>
        <time>2015-07-25T07:27:11Z</time>
      </trkpt>
      <trkpt lat="-21.09994" lon="55.48061">
        <ele>3066.77</ele>
        <time>2015-07-25T07:27:41Z</time>
      </trkpt>
      <trkpt lat="-21.10013" lon="55.48065">
        <ele>3067.82</ele>
        <time>2015-07-25T07:28:11Z</time>
      </trkpt>
      <trkpt lat="-21.09762" lon="55.47966">
        <ele>3057.26</ele>
        <time>2015-07-25T08:12:37Z</time>
      </trkpt>
      <trkpt lat="-21.09744" lon="55.47972">
        <ele>3055.11</ele>
        <time>2015-07-25T08:13:01Z</time>
      </trkpt>
      <trkpt lat="-21.0973" lon="55.47985">
        <ele>3053.99</ele>
        <time>2015-07-25T08:13:31Z</time>
      </trkpt>
      <trkpt lat="-21.09714" lon="55.47994">
        <ele>3048.39</ele>
        <time>2015-07-25T08:13:52Z</time>
      </trkpt>
      <trkpt lat="-21.09696" lon="55.47997">
        <ele>3045.57</ele>
        <time>2015-07-25T08:14:11Z</time>
      </trkpt>
      <trkpt lat="-21.0968" lon="55.48007">
        <ele>3043.2</ele>
        <time>2015-07-25T08:14:29Z</time>
      </trkpt>
      <trkpt lat="-21.09673" lon="55.48003">
        <ele>3035.57</ele>
        <time>2015-07-25T08:45:56Z</time>
      </trkpt>
      <trkpt lat="-21.09665" lon="55.48021">
        <ele>3036.63</ele>
        <time>2015-07-25T08:46:49Z</time>
      </trkpt>
      <trkpt lat="-21.09648" lon="55.4803">
        <ele>3034.21</ele>
        <time>2015-07-25T08:47:09Z</time>
      </trkpt>
      <trkpt lat="-21.09631" lon="55.48038">
        <ele>3036.17</ele>
        <time>2015-07-25T08:47:52Z</time>
      </trkpt>
      <trkpt lat="-21.09616" lon="55.48049">
        <ele>3040.02</ele>
        <time>2015-07-25T08:48:15Z</time>
      </trkpt>
      <trkpt lat="-21.096" lon="55.48057">
        <ele>3044.23</ele>
        <time>2015-07-25T08:48:57Z</time>
      </trkpt>
      <trkpt lat="-21.09583" lon="55.48066">
        <ele>3045.55</ele>
        <time>2015-07-25T08:49:29Z</time>
      </trkpt>
      <trkpt lat="-21.09566" lon="55.48059">
        <ele>3043.74</ele>
        <time>2015-07-25T08:50:19Z</time>
      </trkpt>
      <trkpt lat="-21.0957" lon="55.48078">
        <ele>3040.59</ele>
        <time>2015-07-25T09:04:53Z</time>
      </trkpt>
      <trkpt lat="-21.09582" lon="55.48092">
        <ele>3030.34</ele>
        <time>2015-07-25T09:05:44Z</time>
      </trkpt>
      <trkpt lat="-21.09598" lon="55.48101">
        <ele>3030.94</ele>
        <time>2015-07-25T09:07:08Z</time>
      </trkpt>
      <trkpt lat="-21.09612" lon="55.48114">
        <ele>3020.62</ele>
        <time>2015-07-25T09:07:47Z</time>
      </trkpt>
      <trkpt lat="-21.09621" lon="55.48131">
        <ele>3019.78</ele>
        <time>2015-07-25T09:08:16Z</time>
      </trkpt>
      <trkpt lat="-21.09623" lon="55.48151">
        <ele>3015.13</ele>
        <time>2015-07-25T09:08:42Z</time>
      </trkpt>
      <trkpt lat="-21.09634" lon="55.48166">
        <ele>3010.45</ele>
        <time>2015-07-25T09:09:17Z</time>
      </trkpt>
      <trkpt lat="-21.0964" lon="55.48185">
        <ele>3008.97</ele>
        <time>2015-07-25T09:09:48Z</time>
      </trkpt>
      <trkpt lat="-21.09647" lon="55.48203">
        <ele>2989.73</ele>
        <time>2015-07-25T09:10:31Z</time>
      </trkpt>
      <trkpt lat="-21.09653" lon="55.48221">
        <ele>2982.38</ele>
        <time>2015-07-25T09:11:24Z</time>
      </trkpt>
      <trkpt lat="-21.09661" lon="55.48238">
        <ele>2971.93</ele>
        <time>2015-07-25T09:12:15Z</time>
      </trkpt>
      <trkpt lat="-21.0966" lon="55.48257">
        <ele>2967.18</ele>
        <time>2015-07-25T09:12:49Z</time>
      </trkpt>
      <trkpt lat="-21.09668" lon="55.48275">
        <ele>2959.32</ele>
        <time>2015-07-25T09:13:47Z</time>
      </trkpt>
      <trkpt lat="-21.09667" lon="55.48294">
        <ele>2960.46</ele>
        <time>2015-07-25T09:14:17Z</time>
      </trkpt>
      <trkpt lat="-21.09668" lon="55.48314">
        <ele>2952.12</ele>
        <time>2015-07-25T09:14:51Z</time>
      </trkpt>
      <trkpt lat="-21.0967" lon="55.48333">
        <ele>2942.45</ele>
        <time>2015-07-25T09:15:29Z</time>
      </trkpt>
      <trkpt lat="-21.09679" lon="55.4835">
        <ele>2936.43</ele>
        <time>2015-07-25T09:16:15Z</time>
      </trkpt>
      <trkpt lat="-21.09693" lon="55.48363">
        <ele>2924.5</ele>
        <time>2015-07-25T09:16:41Z</time>
      </trkpt>
      <trkpt lat="-21.09702" lon="55.4838">
        <ele>2932.77</ele>
        <time>2015-07-25T09:17:04Z</time>
      </trkpt>
      <trkpt lat="-21.09708" lon="55.48399">
        <ele>2927.17</ele>
        <time>2015-07-25T09:19:06Z</time>
      </trkpt>
      <trkpt lat="-21.09718" lon="55.48415">
        <ele>2914.85</ele>
        <time>2015-07-25T09:19:43Z</time>
      </trkpt>
      <trkpt lat="-21.09722" lon="55.48435">
        <ele>2912.93</ele>
        <time>2015-07-25T09:20:06Z</time>
      </trkpt>
      <trkpt lat="-21.09728" lon="55.48453">
        <ele>2910.6</ele>
        <time>2015-07-25T09:20:36Z</time>
      </trkpt>
      <trkpt lat="-21.09746" lon="55.48454">
        <ele>2903.62</ele>
        <time>2015-07-25T09:21:04Z</time>
      </trkpt>
      <trkpt lat="-21.09759" lon="55.48469">
        <ele>2903.99</ele>
        <time>2015-07-25T09:21:45Z</time>
      </trkpt>
      <trkpt lat="-21.0977" lon="55.48485">
        <ele>2904.34</ele>
        <time>2015-07-25T09:22:07Z</time>
      </trkpt>
      <trkpt lat="-21.09774" lon="55.48504">
        <ele>2893.84</ele>
        <time>2015-07-25T09:22:37Z</time>
      </trkpt>
      <trkpt lat="-21.09776" lon="55.48523">
        <ele>2890.62</ele>
        <time>2015-07-25T09:22:56Z</time>
      </trkpt>
      <trkpt lat="-21.09786" lon="55.4854">
        <ele>2885.91</ele>
        <time>2015-07-25T09:23:36Z</time>
      </trkpt>
      <trkpt lat="-21.09795" lon="55.48557">
        <ele>2886.2</ele>
        <time>2015-07-25T09:24:01Z</time>
      </trkpt>
      <trkpt lat="-21.0979" lon="55.48576">
        <ele>2880.45</ele>
        <time>2015-07-25T09:24:27Z</time>
      </trkpt>
      <trkpt lat="-21.09785" lon="55.48595">
        <ele>2879.64</ele>
        <time>2015-07-25T09:24:58Z</time>
      </trkpt>
      <trkpt lat="-21.09781" lon="55.48615">
        <ele>2878.69</ele>
        <time>2015-07-25T09:25:22Z</time>
      </trkpt>
      <trkpt lat="-21.09781" lon="55.48634">
        <ele>2872.67</ele>
        <time>2015-07-25T09:26:09Z</time>
      </trkpt>
      <trkpt lat="-21.09789" lon="55.48652">
        <ele>2865.35</ele>
        <time>2015-07-25T09:26:50Z</time>
      </trkpt>
      <trkpt lat="-21.09807" lon="55.48653">
        <ele>2851.69</ele>
        <time>2015-07-25T09:27:31Z</time>
      </trkpt>
      <trkpt lat="-21.09825" lon="55.48655">
        <ele>2847.23</ele>
        <time>2015-07-25T09:28:09Z</time>
      </trkpt>
      <trkpt lat="-21.09844" lon="55.48655">
        <ele>2846.49</ele>
        <time>2015-07-25T09:28:55Z</time>
      </trkpt>
      <trkpt lat="-21.09856" lon="55.4867">
        <ele>2848.12</ele>
        <time>2015-07-25T09:29:24Z</time>
      </trkpt>
      <trkpt lat="-21.09865" lon="55.48687">
        <ele>2851.86</ele>
        <time>2015-07-25T09:29:46Z</time>
      </trkpt>
      <trkpt lat="-21.09878" lon="55.487">
        <ele>2853.03</ele>
        <time>2015-07-25T09:30:13Z</time>
      </trkpt>
      <trkpt lat="-21.0989" lon="55.48716">
        <ele>2849.54</ele>
        <time>2015-07-25T09:30:41Z</time>
      </trkpt>
      <trkpt lat="-21.09901" lon="55.48731">
        <ele>2844.79</ele>
        <time>2015-07-25T09:31:12Z</time>
      </trkpt>
      <trkpt lat="-21.09913" lon="55.48746">
        <ele>2840.69</ele>
        <time>2015-07-25T09:31:40Z</time>
      </trkpt>
      <trkpt lat="-21.09922" lon="55.48763">
        <ele>2855.83</ele>
        <time>2015-07-25T09:32:22Z</time>
      </trkpt>
      <trkpt lat="-21.09933" lon="55.48779">
        <ele>2846.87</ele>
        <time>2015-07-25T09:32:44Z</time>
      </trkpt>
      <trkpt lat="-21.09941" lon="55.48796">
        <ele>2855.32</ele>
        <time>2015-07-25T09:37:24Z</time>
      </trkpt>
      <trkpt lat="-21.09959" lon="55.48793">
        <ele>2850.44</ele>
        <time>2015-07-25T09:37:56Z</time>
      </trkpt>
      <trkpt lat="-21.09977" lon="55.4879">
        <ele>2845.64</ele>
        <time>2015-07-25T09:38:42Z</time>
      </trkpt>
      <trkpt lat="-21.09994" lon="55.48783">
        <ele>2847.35</ele>
        <time>2015-07-25T09:39:23Z</time>
      </trkpt>
      <trkpt lat="-21.1001" lon="55.48773">
        <ele>2844.22</ele>
        <time>2015-07-25T09:39:45Z</time>
      </trkpt>
      <trkpt lat="-21.10028" lon="55.4877">
        <ele>2841.76</ele>
        <time>2015-07-25T09:40:12Z</time>
      </trkpt>
      <trkpt lat="-21.10047" lon="55.48769">
        <ele>2836.64</ele>
        <time>2015-07-25T09:40:38Z</time>
      </trkpt>
      <trkpt lat="-21.10065" lon="55.4877">
        <ele>2830.6</ele>
        <time>2015-07-25T09:41:06Z</time>
      </trkpt>
      <trkpt lat="-21.10082" lon="55.48764">
        <ele>2830.17</ele>
        <time>2015-07-25T09:41:37Z</time>
      </trkpt>
      <trkpt lat="-21.10099" lon="55.48756">
        <ele>2830.13</ele>
        <time>2015-07-25T09:42:05Z</time>
      </trkpt>
      <trkpt lat="-21.1011" lon="55.48773">
        <ele>2819.41</ele>
        <time>2015-07-25T09:43:01Z</time>
      </trkpt>
      <trkpt lat="-21.10114" lon="55.48792">
        <ele>2817.58</ele>
        <time>2015-07-25T09:43:23Z</time>
      </trkpt>
      <trkpt lat="-21.10115" lon="55.48811">
        <ele>2820.09</ele>
        <time>2015-07-25T09:43:53Z</time>
      </trkpt>
      <trkpt lat="-21.10121" lon="55.48829">
        <ele>2806.76</ele>
        <time>2015-07-25T09:44:24Z</time>
      </trkpt>
      <trkpt lat="-21.10117" lon="55.48849">
        <ele>2805.28</ele>
        <time>2015-07-25T09:44:50Z</time>
      </trkpt>
      <trkpt lat="-21.10124" lon="55.48868">
        <ele>2797.12</ele>
        <time>2015-07-25T09:45:23Z</time>
      </trkpt>
      <trkpt lat="-21.10131" lon="55.48885">
        <ele>2794.26</ele>
        <time>2015-07-25T09:45:48Z</time>
      </trkpt>
      <trkpt lat="-21.10137" lon="55.48904">
        <ele>2792.85</ele>
        <time>2015-07-25T09:46:18Z</time>
      </trkpt>
      <trkpt lat="-21.10142" lon="55.48923">
        <ele>2788.32</ele>
        <time>2015-07-25T09:46:48Z</time>
      </trkpt>
      <trkpt lat="-21.10154" lon="55.48939">
        <ele>2786.56</ele>
        <time>2015-07-25T09:47:23Z</time>
      </trkpt>
      <trkpt lat="-21.10163" lon="55.48956">
        <ele>2782.97</ele>
        <time>2015-07-25T09:47:51Z</time>
      </trkpt>
      <trkpt lat="-21.10176" lon="55.48971">
        <ele>2781.74</ele>
        <time>2015-07-25T09:48:21Z</time>
      </trkpt>
      <trkpt lat="-21.10183" lon="55.48989">
        <ele>2780.91</ele>
        <time>2015-07-25T09:48:58Z</time>
      </trkpt>
      <trkpt lat="-21.10191" lon="55.49007">
        <ele>2778.18</ele>
        <time>2015-07-25T09:49:20Z</time>
      </trkpt>
      <trkpt lat="-21.10202" lon="55.49022">
        <ele>2772.51</ele>
        <time>2015-07-25T09:53:12Z</time>
      </trkpt>
      <trkpt lat="-21.10211" lon="55.49039">
        <ele>2767.33</ele>
        <time>2015-07-25T09:53:45Z</time>
      </trkpt>
      <trkpt lat="-21.1022" lon="55.49056">
        <ele>2761.43</ele>
        <time>2015-07-25T09:54:22Z</time>
      </trkpt>
      <trkpt lat="-21.10236" lon="55.49066">
        <ele>2759.27</ele>
        <time>2015-07-25T09:55:13Z</time>
      </trkpt>
      <trkpt lat="-21.10252" lon="55.49076">
        <ele>2754.13</ele>
        <time>2015-07-25T09:56:31Z</time>
      </trkpt>
      <trkpt lat="-21.1027" lon="55.49081">
        <ele>2751.46</ele>
        <time>2015-07-25T09:57:11Z</time>
      </trkpt>
      <trkpt lat="-21.10283" lon="55.49094">
        <ele>2744.64</ele>
        <time>2015-07-25T09:57:52Z</time>
      </trkpt>
      <trkpt lat="-21.10298" lon="55.49106">
        <ele>2738.81</ele>
        <time>2015-07-25T09:58:50Z</time>
      </trkpt>
      <trkpt lat="-21.10315" lon="55.49113">
        <ele>2729.51</ele>
        <time>2015-07-25T09:59:30Z</time>
      </trkpt>
      <trkpt lat="-21.10333" lon="55.49118">
        <ele>2722.07</ele>
        <time>2015-07-25T10:00:23Z</time>
      </trkpt>
      <trkpt lat="-21.10347" lon="55.4913">
        <ele>2723.26</ele>
        <time>2015-07-25T10:01:11Z</time>
      </trkpt>
      <trkpt lat="-21.10361" lon="55.49143">
        <ele>2721.18</ele>
        <time>2015-07-25T10:01:53Z</time>
      </trkpt>
      <trkpt lat="-21.10372" lon="55.49159">
        <ele>2716.04</ele>
        <time>2015-07-25T10:02:20Z</time>
      </trkpt>
      <trkpt lat="-21.10379" lon="55.49176">
        <ele>2704.96</ele>
        <time>2015-07-25T10:03:05Z</time>
      </trkpt>
      <trkpt lat="-21.10385" lon="55.49195">
        <ele>2702.88</ele>
        <time>2015-07-25T10:04:15Z</time>
      </trkpt>
      <trkpt lat="-21.10401" lon="55.49204">
        <ele>2694.26</ele>
        <time>2015-07-25T10:05:04Z</time>
      </trkpt>
      <trkpt lat="-21.1041" lon="55.49221">
        <ele>2694.71</ele>
        <time>2015-07-25T10:05:48Z</time>
      </trkpt>
      <trkpt lat="-21.10428" lon="55.49225">
        <ele>2684.48</ele>
        <time>2015-07-25T10:06:40Z</time>
      </trkpt>
      <trkpt lat="-21.10446" lon="55.49227">
        <ele>2681.78</ele>
        <time>2015-07-25T10:07:14Z</time>
      </trkpt>
      <trkpt lat="-21.10464" lon="55.49233">
        <ele>2674.23</ele>
        <time>2015-07-25T10:08:03Z</time>
      </trkpt>
      <trkpt lat="-21.10481" lon="55.4924">
        <ele>2664.07</ele>
        <time>2015-07-25T10:08:46Z</time>
      </trkpt>
      <trkpt lat="-21.10499" lon="55.49244">
        <ele>2659.57</ele>
        <time>2015-07-25T10:11:28Z</time>
      </trkpt>
      <trkpt lat="-21.10516" lon="55.49248">
        <ele>2655.82</ele>
        <time>2015-07-25T10:12:17Z</time>
      </trkpt>
      <trkpt lat="-21.10534" lon="55.49252">
        <ele>2650.4</ele>
        <time>2015-07-25T10:12:49Z</time>
      </trkpt>
      <trkpt lat="-21.10548" lon="55.49265">
        <ele>2640.86</ele>
        <time>2015-07-25T10:13:31Z</time>
      </trkpt>
      <trkpt lat="-21.10564" lon="55.49275">
        <ele>2626.85</ele>
        <time>2015-07-25T10:14:24Z</time>
      </trkpt>
      <trkpt lat="-21.10579" lon="55.49285">
        <ele>2623</ele>
        <time>2015-07-25T10:14:45Z</time>
      </trkpt>
      <trkpt lat="-21.10597" lon="55.49293">
        <ele>2618.85</ele>
        <time>2015-07-25T10:15:23Z</time>
      </trkpt>
      <trkpt lat="-21.10612" lon="55.49305">
        <ele>2616.44</ele>
        <time>2015-07-25T10:16:01Z</time>
      </trkpt>
      <trkpt lat="-21.10626" lon="55.49316">
        <ele>2613.58</ele>
        <time>2015-07-25T10:16:39Z</time>
      </trkpt>
      <trkpt lat="-21.10645" lon="55.49315">
        <ele>2606.3</ele>
        <time>2015-07-25T10:17:08Z</time>
      </trkpt>
      <trkpt lat="-21.10663" lon="55.49319">
        <ele>2601.68</ele>
        <time>2015-07-25T10:17:38Z</time>
      </trkpt>
      <trkpt lat="-21.10681" lon="55.49323">
        <ele>2596.28</ele>
        <time>2015-07-25T10:18:17Z</time>
      </trkpt>
      <trkpt lat="-21.10693" lon="55.49338">
        <ele>2588.65</ele>
        <time>2015-07-25T10:18:58Z</time>
      </trkpt>
      <trkpt lat="-21.10711" lon="55.49344">
        <ele>2583.33</ele>
        <time>2015-07-25T10:19:36Z</time>
      </trkpt>
      <trkpt lat="-21.10721" lon="55.4936">
        <ele>2577.41</ele>
        <time>2015-07-25T10:20:05Z</time>
      </trkpt>
      <trkpt lat="-21.10735" lon="55.49374">
        <ele>2569.6</ele>
        <time>2015-07-25T10:20:37Z</time>
      </trkpt>
      <trkpt lat="-21.1075" lon="55.49383">
        <ele>2565.03</ele>
        <time>2015-07-25T10:21:10Z</time>
      </trkpt>
      <trkpt lat="-21.10768" lon="55.4939">
        <ele>2564.45</ele>
        <time>2015-07-25T10:21:34Z</time>
      </trkpt>
      <trkpt lat="-21.10781" lon="55.49403">
        <ele>2560.84</ele>
        <time>2015-07-25T10:22:08Z</time>
      </trkpt>
      <trkpt lat="-21.10796" lon="55.49414">
        <ele>2554.92</ele>
        <time>2015-07-25T10:22:39Z</time>
      </trkpt>
      <trkpt lat="-21.10813" lon="55.49424">
        <ele>2549.93</ele>
        <time>2015-07-25T10:23:14Z</time>
      </trkpt>
      <trkpt lat="-21.10828" lon="55.49436">
        <ele>2550.59</ele>
        <time>2015-07-25T10:23:51Z</time>
      </trkpt>
      <trkpt lat="-21.10845" lon="55.49441">
        <ele>2541.01</ele>
        <time>2015-07-25T10:24:23Z</time>
      </trkpt>
      <trkpt lat="-21.10863" lon="55.49447">
        <ele>2544.19</ele>
        <time>2015-07-25T10:24:59Z</time>
      </trkpt>
      <trkpt lat="-21.10877" lon="55.49459">
        <ele>2538.48</ele>
        <time>2015-07-25T10:25:31Z</time>
      </trkpt>
      <trkpt lat="-21.10889" lon="55.49474">
        <ele>2525.38</ele>
        <time>2015-07-25T10:26:09Z</time>
      </trkpt>
      <trkpt lat="-21.10905" lon="55.49484">
        <ele>2515.42</ele>
        <time>2015-07-25T10:26:42Z</time>
      </trkpt>
      <trkpt lat="-21.10915" lon="55.495">
        <ele>2509.38</ele>
        <time>2015-07-25T10:27:13Z</time>
      </trkpt>
      <trkpt lat="-21.10931" lon="55.49511">
        <ele>2510.32</ele>
        <time>2015-07-25T10:27:37Z</time>
      </trkpt>
      <trkpt lat="-21.10939" lon="55.49529">
        <ele>2510.06</ele>
        <time>2015-07-25T10:28:16Z</time>
      </trkpt>
      <trkpt lat="-21.10946" lon="55.49547">
        <ele>2504.66</ele>
        <time>2015-07-25T10:28:52Z</time>
      </trkpt>
      <trkpt lat="-21.10955" lon="55.49564">
        <ele>2498.46</ele>
        <time>2015-07-25T10:29:06Z</time>
      </trkpt>
      <trkpt lat="-21.10961" lon="55.49582">
        <ele>2494.53</ele>
        <time>2015-07-25T10:29:35Z</time>
      </trkpt>
      <trkpt lat="-21.10972" lon="55.49598">
        <ele>2486.57</ele>
        <time>2015-07-25T10:30:13Z</time>
      </trkpt>
      <trkpt lat="-21.10986" lon="55.49611">
        <ele>2483.56</ele>
        <time>2015-07-25T10:51:33Z</time>
      </trkpt>
      <trkpt lat="-21.11001" lon="55.496">
        <ele>2483.27</ele>
        <time>2015-07-25T10:52:15Z</time>
      </trkpt>
      <trkpt lat="-21.1101" lon="55.49583">
        <ele>2486.44</ele>
        <time>2015-07-25T10:52:49Z</time>
      </trkpt>
      <trkpt lat="-21.11023" lon="55.49569">
        <ele>2483.69</ele>
        <time>2015-07-25T10:53:15Z</time>
      </trkpt>
      <trkpt lat="-21.11039" lon="55.49559">
        <ele>2485.28</ele>
        <time>2015-07-25T10:53:38Z</time>
      </trkpt>
      <trkpt lat="-21.11054" lon="55.49549">
        <ele>2484.24</ele>
        <time>2015-07-25T10:54:05Z</time>
      </trkpt>
      <trkpt lat="-21.1107" lon="55.49539">
        <ele>2484.85</ele>
        <time>2015-07-25T10:54:40Z</time>
      </trkpt>
      <trkpt lat="-21.11087" lon="55.49533">
        <ele>2479.79</ele>
        <time>2015-07-25T10:55:12Z</time>
      </trkpt>
      <trkpt lat="-21.11106" lon="55.49537">
        <ele>2489.89</ele>
        <time>2015-07-25T10:56:09Z</time>
      </trkpt>
      <trkpt lat="-21.1112" lon="55.49525">
        <ele>2495.75</ele>
        <time>2015-07-25T10:57:17Z</time>
      </trkpt>
      <trkpt lat="-21.11137" lon="55.49518">
        <ele>2498.22</ele>
        <time>2015-07-25T10:58:09Z</time>
      </trkpt>
      <trkpt lat="-21.11146" lon="55.49501">
        <ele>2500.08</ele>
        <time>2015-07-25T11:00:58Z</time>
      </trkpt>
      <trkpt lat="-21.11152" lon="55.49483">
        <ele>2484.91</ele>
        <time>2015-07-25T11:01:18Z</time>
      </trkpt>
      <trkpt lat="-21.11159" lon="55.49501">
        <ele>2482.8</ele>
        <time>2015-07-25T11:01:49Z</time>
      </trkpt>
      <trkpt lat="-21.11174" lon="55.49512">
        <ele>2488.96</ele>
        <time>2015-07-25T11:02:15Z</time>
      </trkpt>
      <trkpt lat="-21.11192" lon="55.49512">
        <ele>2479.79</ele>
        <time>2015-07-25T11:03:28Z</time>
      </trkpt>
      <trkpt lat="-21.11209" lon="55.49505">
        <ele>2437.51</ele>
        <time>2015-07-25T11:05:40Z</time>
      </trkpt>
      <trkpt lat="-21.11224" lon="55.49493">
        <ele>2434.32</ele>
        <time>2015-07-25T11:06:15Z</time>
      </trkpt>
      <trkpt lat="-21.11241" lon="55.49486">
        <ele>2437.28</ele>
        <time>2015-07-25T11:06:34Z</time>
      </trkpt>
      <trkpt lat="-21.1126" lon="55.49491">
        <ele>2437.75</ele>
        <time>2015-07-25T11:06:53Z</time>
      </trkpt>
      <trkpt lat="-21.11269" lon="55.49508">
        <ele>2433.45</ele>
        <time>2015-07-25T11:07:16Z</time>
      </trkpt>
      <trkpt lat="-21.11273" lon="55.49489">
        <ele>2407</ele>
        <time>2015-07-25T11:08:55Z</time>
      </trkpt>
      <trkpt lat="-21.11282" lon="55.49472">
        <ele>2397.18</ele>
        <time>2015-07-25T11:10:23Z</time>
      </trkpt>
      <trkpt lat="-21.11293" lon="55.49457">
        <ele>2372.35</ele>
        <time>2015-07-25T11:12:29Z</time>
      </trkpt>
      <trkpt lat="-21.11308" lon="55.49446">
        <ele>2358.38</ele>
        <time>2015-07-25T11:14:53Z</time>
      </trkpt>
      <trkpt lat="-21.11297" lon="55.4943">
        <ele>2354.56</ele>
        <time>2015-07-25T11:15:48Z</time>
      </trkpt>
      <trkpt lat="-21.11308" lon="55.49415">
        <ele>2352.31</ele>
        <time>2015-07-25T11:16:22Z</time>
      </trkpt>
      <trkpt lat="-21.11291" lon="55.49422">
        <ele>2340.01</ele>
        <time>2015-07-25T11:17:21Z</time>
      </trkpt>
      <trkpt lat="-21.11274" lon="55.49413">
        <ele>2327.06</ele>
        <time>2015-07-25T11:17:56Z</time>
      </trkpt>
      <trkpt lat="-21.11291" lon="55.49401">
        <ele>2329.4</ele>
        <time>2015-07-25T11:18:27Z</time>
      </trkpt>
      <trkpt lat="-21.11275" lon="55.4939">
        <ele>2321.59</ele>
        <time>2015-07-25T11:19:24Z</time>
      </trkpt>
      <trkpt lat="-21.11252" lon="55.4937">
        <ele>2313.4</ele>
        <time>2015-07-25T11:20:04Z</time>
      </trkpt>
      <trkpt lat="-21.11265" lon="55.49356">
        <ele>2292.25</ele>
        <time>2015-07-25T11:21:07Z</time>
      </trkpt>
      <trkpt lat="-21.11283" lon="55.49359">
        <ele>2277.34</ele>
        <time>2015-07-25T11:22:03Z</time>
      </trkpt>
      <trkpt lat="-21.11295" lon="55.49344">
        <ele>2269.13</ele>
        <time>2015-07-25T11:22:51Z</time>
      </trkpt>
      <trkpt lat="-21.11313" lon="55.49341">
        <ele>2273.45</ele>
        <time>2015-07-25T11:23:40Z</time>
      </trkpt>
      <trkpt lat="-21.11317" lon="55.49321">
        <ele>2245.53</ele>
        <time>2015-07-25T11:31:49Z</time>
      </trkpt>
      <trkpt lat="-21.11333" lon="55.49313">
        <ele>2248.18</ele>
        <time>2015-07-25T11:32:12Z</time>
      </trkpt>
      <trkpt lat="-21.1134" lon="55.49294">
        <ele>2223.14</ele>
        <time>2015-07-25T11:34:11Z</time>
      </trkpt>
      <trkpt lat="-21.11329" lon="55.49279">
        <ele>2201.19</ele>
        <time>2015-07-25T11:36:19Z</time>
      </trkpt>
      <trkpt lat="-21.11322" lon="55.49261">
        <ele>2192.54</ele>
        <time>2015-07-25T11:36:58Z</time>
      </trkpt>
      <trkpt lat="-21.11329" lon="55.49243">
        <ele>2177.57</ele>
        <time>2015-07-25T11:39:00Z</time>
      </trkpt>
      <trkpt lat="-21.11336" lon="55.49225">
        <ele>2163.17</ele>
        <time>2015-07-25T11:40:37Z</time>
      </trkpt>
      <trkpt lat="-21.11325" lon="55.49208">
        <ele>2145.98</ele>
        <time>2015-07-25T11:41:47Z</time>
      </trkpt>
      <trkpt lat="-21.11309" lon="55.49199">
        <ele>2142.8</ele>
        <time>2015-07-25T11:42:15Z</time>
      </trkpt>
      <trkpt lat="-21.11298" lon="55.49183">
        <ele>2136.62</ele>
        <time>2015-07-25T11:43:12Z</time>
      </trkpt>
      <trkpt lat="-21.11308" lon="55.49166">
        <ele>2117.31</ele>
        <time>2015-07-25T11:44:44Z</time>
      </trkpt>
      <trkpt lat="-21.11323" lon="55.49156">
        <ele>2106.13</ele>
        <time>2015-07-25T11:45:45Z</time>
      </trkpt>
      <trkpt lat="-21.11342" lon="55.49156">
        <ele>2104.62</ele>
        <time>2015-07-25T11:46:21Z</time>
      </trkpt>
      <trkpt lat="-21.11331" lon="55.49139">
        <ele>2078.94</ele>
        <time>2015-07-25T11:47:48Z</time>
      </trkpt>
      <trkpt lat="-21.11335" lon="55.4912">
        <ele>2078.27</ele>
        <time>2015-07-25T11:48:23Z</time>
      </trkpt>
      <trkpt lat="-21.11327" lon="55.49102">
        <ele>2072.7</ele>
        <time>2015-07-25T11:49:27Z</time>
      </trkpt>
      <trkpt lat="-21.11334" lon="55.49084">
        <ele>2065.19</ele>
        <time>2015-07-25T11:50:16Z</time>
      </trkpt>
      <trkpt lat="-21.11347" lon="55.49068">
        <ele>2056.02</ele>
        <time>2015-07-25T11:50:29Z</time>
      </trkpt>
      <trkpt lat="-21.11359" lon="55.49054">
        <ele>2053.23</ele>
        <time>2015-07-25T11:50:56Z</time>
      </trkpt>
      <trkpt lat="-21.11359" lon="55.49034">
        <ele>2049.93</ele>
        <time>2015-07-25T11:51:54Z</time>
      </trkpt>
      <trkpt lat="-21.1135" lon="55.49017">
        <ele>2045.63</ele>
        <time>2015-07-25T11:52:13Z</time>
      </trkpt>
      <trkpt lat="-21.11342" lon="55.48999">
        <ele>2042.98</ele>
        <time>2015-07-25T11:52:53Z</time>
      </trkpt>
      <trkpt lat="-21.11337" lon="55.4898">
        <ele>2034.83</ele>
        <time>2015-07-25T11:53:25Z</time>
      </trkpt>
      <trkpt lat="-21.11329" lon="55.48962">
        <ele>2030.4</ele>
        <time>2015-07-25T11:54:00Z</time>
      </trkpt>
      <trkpt lat="-21.11311" lon="55.4896">
        <ele>2027.09</ele>
        <time>2015-07-25T11:54:32Z</time>
      </trkpt>
      <trkpt lat="-21.11299" lon="55.48946">
        <ele>2027.54</ele>
        <time>2015-07-25T11:55:13Z</time>
      </trkpt>
      <trkpt lat="-21.11307" lon="55.48928">
        <ele>2017.98</ele>
        <time>2015-07-25T11:55:37Z</time>
      </trkpt>
      <trkpt lat="-21.11304" lon="55.48908">
        <ele>2018.15</ele>
        <time>2015-07-25T11:56:13Z</time>
      </trkpt>
      <trkpt lat="-21.11305" lon="55.48889">
        <ele>2009.47</ele>
        <time>2015-07-25T11:56:52Z</time>
      </trkpt>
      <trkpt lat="-21.11289" lon="55.48878">
        <ele>1998.1</ele>
        <time>2015-07-25T11:57:39Z</time>
      </trkpt>
      <trkpt lat="-21.11284" lon="55.48859">
        <ele>1997.26</ele>
        <time>2015-07-25T11:58:21Z</time>
      </trkpt>
      <trkpt lat="-21.11291" lon="55.4884">
        <ele>2001.23</ele>
        <time>2015-07-25T11:58:47Z</time>
      </trkpt>
      <trkpt lat="-21.11301" lon="55.48823">
        <ele>1987.79</ele>
        <time>2015-07-25T11:59:13Z</time>
      </trkpt>
      <trkpt lat="-21.11316" lon="55.4881">
        <ele>1989.36</ele>
        <time>2015-07-25T11:59:32Z</time>
      </trkpt>
      <trkpt lat="-21.11332" lon="55.48802">
        <ele>1991.39</ele>
        <time>2015-07-25T11:59:52Z</time>
      </trkpt>
      <trkpt lat="-21.11347" lon="55.4879">
        <ele>1984.62</ele>
        <time>2015-07-25T12:00:16Z</time>
      </trkpt>
      <trkpt lat="-21.11362" lon="55.4878">
        <ele>1984.21</ele>
        <time>2015-07-25T12:00:42Z</time>
      </trkpt>
      <trkpt lat="-21.1138" lon="55.48778">
        <ele>1991.85</ele>
        <time>2015-07-25T12:14:08Z</time>
      </trkpt>
      <trkpt lat="-21.11398" lon="55.48775">
        <ele>1998.58</ele>
        <time>2015-07-25T12:16:49Z</time>
      </trkpt>
      <trkpt lat="-21.11415" lon="55.48781">
        <ele>1986.14</ele>
        <time>2015-07-25T12:17:14Z</time>
      </trkpt>
      <trkpt lat="-21.11433" lon="55.48782">
        <ele>1984.04</ele>
        <time>2015-07-25T12:17:29Z</time>
      </trkpt>
      <trkpt lat="-21.11452" lon="55.48785">
        <ele>1974.86</ele>
        <time>2015-07-25T12:17:45Z</time>
      </trkpt>
      <trkpt lat="-21.1147" lon="55.48786">
        <ele>1975.5</ele>
        <time>2015-07-25T12:17:59Z</time>
      </trkpt>
      <trkpt lat="-21.11488" lon="55.48786">
        <ele>1973.55</ele>
        <time>2015-07-25T12:18:18Z</time>
      </trkpt>
      <trkpt lat="-21.11506" lon="55.4879">
        <ele>1962.13</ele>
        <time>2015-07-25T12:18:47Z</time>
      </trkpt>
      <trkpt lat="-21.11524" lon="55.48795">
        <ele>1964.07</ele>
        <time>2015-07-25T12:19:22Z</time>
      </trkpt>
      <trkpt lat="-21.11541" lon="55.48801">
        <ele>1953.74</ele>
        <time>2015-07-25T12:20:00Z</time>
      </trkpt>
      <trkpt lat="-21.11553" lon="55.48815">
        <ele>1946.18</ele>
        <time>2015-07-25T12:20:23Z</time>
      </trkpt>
      <trkpt lat="-21.11569" lon="55.48806">
        <ele>1939.44</ele>
        <time>2015-07-25T12:21:37Z</time>
      </trkpt>
      <trkpt lat="-21.11571" lon="55.48787">
        <ele>1931.59</ele>
        <time>2015-07-25T12:22:07Z</time>
      </trkpt>
      <trkpt lat="-21.11572" lon="55.48767">
        <ele>1924.98</ele>
        <time>2015-07-25T12:22:52Z</time>
      </trkpt>
      <trkpt lat="-21.11583" lon="55.4875">
        <ele>1920.43</ele>
        <time>2015-07-25T12:23:33Z</time>
      </trkpt>
      <trkpt lat="-21.11594" lon="55.48735">
        <ele>1915.37</ele>
        <time>2015-07-25T12:23:56Z</time>
      </trkpt>
      <trkpt lat="-21.11607" lon="55.48722">
        <ele>1909.91</ele>
        <time>2015-07-25T12:24:52Z</time>
      </trkpt>
      <trkpt lat="-21.11618" lon="55.48706">
        <ele>1913.24</ele>
        <time>2015-07-25T12:25:10Z</time>
      </trkpt>
      <trkpt lat="-21.11632" lon="55.48718">
        <ele>1906.68</ele>
        <time>2015-07-25T12:25:43Z</time>
      </trkpt>
      <trkpt lat="-21.11644" lon="55.48734">
        <ele>1900.84</ele>
        <time>2015-07-25T12:26:16Z</time>
      </trkpt>
      <trkpt lat="-21.11659" lon="55.48744">
        <ele>1891.39</ele>
        <time>2015-07-25T12:26:38Z</time>
      </trkpt>
      <trkpt lat="-21.11676" lon="55.4875">
        <ele>1886.46</ele>
        <time>2015-07-25T12:27:12Z</time>
      </trkpt>
      <trkpt lat="-21.11694" lon="55.48745">
        <ele>1884.68</ele>
        <time>2015-07-25T12:27:47Z</time>
      </trkpt>
      <trkpt lat="-21.1171" lon="55.48736">
        <ele>1873.82</ele>
        <time>2015-07-25T12:28:28Z</time>
      </trkpt>
      <trkpt lat="-21.11719" lon="55.48718">
        <ele>1854.46</ele>
        <time>2015-07-25T12:28:39Z</time>
      </trkpt>
      <trkpt lat="-21.11731" lon="55.48701">
        <ele>1858.18</ele>
        <time>2015-07-25T12:30:00Z</time>
      </trkpt>
      <trkpt lat="-21.11743" lon="55.48687">
        <ele>1852.5</ele>
        <time>2015-07-25T12:31:07Z</time>
      </trkpt>
      <trkpt lat="-21.1176" lon="55.48694">
        <ele>1834.7</ele>
        <time>2015-07-25T12:32:14Z</time>
      </trkpt>
      <trkpt lat="-21.11768" lon="55.48676">
        <ele>1830.22</ele>
        <time>2015-07-25T12:32:58Z</time>
      </trkpt>
      <trkpt lat="-21.11785" lon="55.48683">
        <ele>1819.95</ele>
        <time>2015-07-25T12:33:36Z</time>
      </trkpt>
      <trkpt lat="-21.11792" lon="55.48702">
        <ele>1809.21</ele>
        <time>2015-07-25T12:34:32Z</time>
      </trkpt>
      <trkpt lat="-21.11805" lon="55.48687">
        <ele>1786.07</ele>
        <time>2015-07-25T12:35:59Z</time>
      </trkpt>
      <trkpt lat="-21.11808" lon="55.48667">
        <ele>1778.25</ele>
        <time>2015-07-25T12:36:22Z</time>
      </trkpt>
      <trkpt lat="-21.11813" lon="55.48648">
        <ele>1772.54</ele>
        <time>2015-07-25T12:36:44Z</time>
      </trkpt>
      <trkpt lat="-21.11825" lon="55.48636">
        <ele>1774.32</ele>
        <time>2015-07-25T12:44:01Z</time>
      </trkpt>
      <trkpt lat="-21.11844" lon="55.48638">
        <ele>1767.17</ele>
        <time>2015-07-25T12:44:39Z</time>
      </trkpt>
      <trkpt lat="-21.11862" lon="55.4864">
        <ele>1759.94</ele>
        <time>2015-07-25T12:45:25Z</time>
      </trkpt>
      <trkpt lat="-21.11879" lon="55.48635">
        <ele>1749.41</ele>
        <time>2015-07-25T12:46:33Z</time>
      </trkpt>
      <trkpt lat="-21.11892" lon="55.48649">
        <ele>1740.31</ele>
        <time>2015-07-25T12:47:14Z</time>
      </trkpt>
      <trkpt lat="-21.11902" lon="55.48632">
        <ele>1725.47</ele>
        <time>2015-07-25T12:48:18Z</time>
      </trkpt>
      <trkpt lat="-21.11893" lon="55.48616">
        <ele>1706.36</ele>
        <time>2015-07-25T12:50:03Z</time>
      </trkpt>
      <trkpt lat="-21.11901" lon="55.48598">
        <ele>1691.61</ele>
        <time>2015-07-25T12:50:53Z</time>
      </trkpt>
      <trkpt lat="-21.1192" lon="55.486">
        <ele>1691.38</ele>
        <time>2015-07-25T12:51:18Z</time>
      </trkpt>
      <trkpt lat="-21.11938" lon="55.48597">
        <ele>1679.04</ele>
        <time>2015-07-25T12:51:57Z</time>
      </trkpt>
      <trkpt lat="-21.11942" lon="55.48577">
        <ele>1678.3</ele>
        <time>2015-07-25T12:52:43Z</time>
      </trkpt>
      <trkpt lat="-21.11948" lon="55.48558">
        <ele>1665</ele>
        <time>2015-07-25T12:53:33Z</time>
      </trkpt>
      <trkpt lat="-21.11937" lon="55.48542">
        <ele>1657.21</ele>
        <time>2015-07-25T12:54:37Z</time>
      </trkpt>
      <trkpt lat="-21.11953" lon="55.48532">
        <ele>1640.83</ele>
        <time>2015-07-25T12:55:04Z</time>
      </trkpt>
      <trkpt lat="-21.11955" lon="55.48513">
        <ele>1640.02</ele>
        <time>2015-07-25T12:55:55Z</time>
      </trkpt>
      <trkpt lat="-21.11963" lon="55.48495">
        <ele>1635.85</ele>
        <time>2015-07-25T12:56:32Z</time>
      </trkpt>
      <trkpt lat="-21.11967" lon="55.48476">
        <ele>1627.85</ele>
        <time>2015-07-25T12:57:05Z</time>
      </trkpt>
      <trkpt lat="-21.11984" lon="55.48468">
        <ele>1626.2</ele>
        <time>2015-07-25T12:57:31Z</time>
      </trkpt>
      <trkpt lat="-21.12" lon="55.48458">
        <ele>1623.35</ele>
        <time>2015-07-25T12:58:17Z</time>
      </trkpt>
      <trkpt lat="-21.1201" lon="55.48442">
        <ele>1612.85</ele>
        <time>2015-07-25T12:59:12Z</time>
      </trkpt>
      <trkpt lat="-21.12029" lon="55.48439">
        <ele>1607.12</ele>
        <time>2015-07-25T12:59:34Z</time>
      </trkpt>
      <trkpt lat="-21.12046" lon="55.48444">
        <ele>1601.62</ele>
        <time>2015-07-25T13:03:05Z</time>
      </trkpt>
      <trkpt lat="-21.12056" lon="55.48461">
        <ele>1599.89</ele>
        <time>2015-07-25T13:03:43Z</time>
      </trkpt>
      <trkpt lat="-21.12071" lon="55.4845">
        <ele>1576.07</ele>
        <time>2015-07-25T13:05:42Z</time>
      </trkpt>
      <trkpt lat="-21.1209" lon="55.48449">
        <ele>1550.6</ele>
        <time>2015-07-25T13:07:11Z</time>
      </trkpt>
      <trkpt lat="-21.12103" lon="55.48462">
        <ele>1537.83</ele>
        <time>2015-07-25T13:09:32Z</time>
      </trkpt>
      <trkpt lat="-21.1211" lon="55.4848">
        <ele>1517.45</ele>
        <time>2015-07-25T13:10:59Z</time>
      </trkpt>
      <trkpt lat="-21.12129" lon="55.48476">
        <ele>1514.73</ele>
        <time>2015-07-25T13:11:40Z</time>
      </trkpt>
      <trkpt lat="-21.12143" lon="55.48464">
        <ele>1507.18</ele>
        <time>2015-07-25T13:12:28Z</time>
      </trkpt>
      <trkpt lat="-21.12149" lon="55.48445">
        <ele>1500.66</ele>
        <time>2015-07-25T13:13:07Z</time>
      </trkpt>
      <trkpt lat="-21.12157" lon="55.48427">
        <ele>1480.07</ele>
        <time>2015-07-25T13:14:59Z</time>
      </trkpt>
      <trkpt lat="-21.12164" lon="55.48409">
        <ele>1470.18</ele>
        <time>2015-07-25T13:15:40Z</time>
      </trkpt>
      <trkpt lat="-21.12181" lon="55.484">
        <ele>1462.57</ele>
        <time>2015-07-25T13:17:13Z</time>
      </trkpt>
      <trkpt lat="-21.12199" lon="55.48395">
        <ele>1447.82</ele>
        <time>2015-07-25T13:18:16Z</time>
      </trkpt>
      <trkpt lat="-21.12209" lon="55.48378">
        <ele>1437.45</ele>
        <time>2015-07-25T13:18:40Z</time>
      </trkpt>
      <trkpt lat="-21.12225" lon="55.48367">
        <ele>1432.83</ele>
        <time>2015-07-25T13:18:53Z</time>
      </trkpt>
      <trkpt lat="-21.12242" lon="55.48362">
        <ele>1434.73</ele>
        <time>2015-07-25T13:19:11Z</time>
      </trkpt>
      <trkpt lat="-21.1226" lon="55.48359">
        <ele>1431.44</ele>
        <time>2015-07-25T13:19:29Z</time>
      </trkpt>
      <trkpt lat="-21.12276" lon="55.4835">
        <ele>1421.48</ele>
        <time>2015-07-25T13:20:13Z</time>
      </trkpt>
      <trkpt lat="-21.12283" lon="55.48331">
        <ele>1419.91</ele>
        <time>2015-07-25T13:20:48Z</time>
      </trkpt>
      <trkpt lat="-21.12277" lon="55.48313">
        <ele>1419.29</ele>
        <time>2015-07-25T13:21:10Z</time>
      </trkpt>
      <trkpt lat="-21.12277" lon="55.48293">
        <ele>1423.28</ele>
        <time>2015-07-25T13:21:30Z</time>
      </trkpt>
      <trkpt lat="-21.12269" lon="55.48274">
        <ele>1419.97</ele>
        <time>2015-07-25T13:21:51Z</time>
      </trkpt>
      <trkpt lat="-21.12262" lon="55.48256">
        <ele>1416.46</ele>
        <time>2015-07-25T13:22:17Z</time>
      </trkpt>
      <trkpt lat="-21.12279" lon="55.48263">
        <ele>1401.49</ele>
        <time>2015-07-25T13:23:06Z</time>
      </trkpt>
      <trkpt lat="-21.12295" lon="55.48274">
        <ele>1395.73</ele>
        <time>2015-07-25T13:23:26Z</time>
      </trkpt>
      <trkpt lat="-21.12309" lon="55.48286">
        <ele>1395.86</ele>
        <time>2015-07-25T13:23:48Z</time>
      </trkpt>
      <trkpt lat="-21.12324" lon="55.48297">
        <ele>1391.39</ele>
        <time>2015-07-25T13:24:05Z</time>
      </trkpt>
      <trkpt lat="-21.12336" lon="55.48312">
        <ele>1392.18</ele>
        <time>2015-07-25T13:24:24Z</time>
      </trkpt>
    </trkseg>
  </trk>
</gpx>